sensor_id;sensor_type;location;lat;lon;timestamp;temperature;humidity
24382;DHT22;12502;50.678;7.172;2023-09-07T00:15:32;16.50;99.90
24382;DHT22;12502;50.678;7.172;2023-09-07T00:20:36;16.60;99.90
24382;DHT22;12502;50.678;7.172;2023-09-07T00:25:39;16.60;99.90
24382;DHT22;12502;50.678;7.172;2023-09-07T00:30:41;16.50;99.90
24382;DHT22;12502;50.678;7.172;2023-09-07T00:35:49;16.50;99.90
24382;DHT22;12502;50.678;7.172;2023-09-07T00:40:51;16.30;99.90
24382;DHT22;12502;50.678;7.172;2023-09-07T00:51:31;16.60;99.90
24382;DHT22;12502;50.678;7.172;2023-09-07T00:56:32;16.60;99.90
24382;DHT22;12502;50.678;7.172;2023-09-07T01:12:40;16.40;99.90
24382;DHT22;12502;50.678;7.172;2023-09-07T01:17:46;16.50;99.90
24382;DHT22;12502;50.678;7.172;2023-09-07T01:22:48;16.50;99.90
24382;DHT22;12502;50.678;7.172;2023-09-07T01:27:59;16.60;99.90
24382;DHT22;12502;50.678;7.172;2023-09-07T01:33:03;16.00;99.90
24382;DHT22;12502;50.678;7.172;2023-09-07T01:38:14;15.80;99.90
24382;DHT22;12502;50.678;7.172;2023-09-07T01:43:17;15.90;99.90
24382;DHT22;12502;50.678;7.172;2023-09-07T01:48:20;15.70;99.90
24382;DHT22;12502;50.678;7.172;2023-09-07T01:53:24;15.60;99.90
24382;DHT22;12502;50.678;7.172;2023-09-07T02:03:58;15.60;99.90
24382;DHT22;12502;50.678;7.172;2023-09-07T02:09:09;15.50;99.90
24382;DHT22;12502;50.678;7.172;2023-09-07T02:14:12;15.40;99.90
24382;DHT22;12502;50.678;7.172;2023-09-07T02:19:19;15.50;99.90
24382;DHT22;12502;50.678;7.172;2023-09-07T02:24:24;15.40;99.90
24382;DHT22;12502;50.678;7.172;2023-09-07T02:29:27;15.30;99.90
24382;DHT22;12502;50.678;7.172;2023-09-07T02:34:32;15.30;99.90
24382;DHT22;12502;50.678;7.172;2023-09-07T02:39:39;15.20;99.90
24382;DHT22;12502;50.678;7.172;2023-09-07T02:50:16;15.10;99.90
24382;DHT22;12502;50.678;7.172;2023-09-07T02:55:19;15.10;99.90
24382;DHT22;12502;50.678;7.172;2023-09-07T03:00:21;15.00;99.90
24382;DHT22;12502;50.678;7.172;2023-09-07T03:05:22;15.00;99.90
24382;DHT22;12502;50.678;7.172;2023-09-07T03:10:26;14.90;99.90
24382;DHT22;12502;50.678;7.172;2023-09-07T03:15:29;14.80;99.90
24382;DHT22;12502;50.678;7.172;2023-09-07T03:20:32;14.90;99.90
24382;DHT22;12502;50.678;7.172;2023-09-07T03:25:35;14.90;99.90
24382;DHT22;12502;50.678;7.172;2023-09-07T03:30:37;14.80;99.90
24382;DHT22;12502;50.678;7.172;2023-09-07T03:35:39;14.80;99.90
24382;DHT22;12502;50.678;7.172;2023-09-07T03:40:42;14.70;99.90
24382;DHT22;12502;50.678;7.172;2023-09-07T03:45:44;14.60;99.90
24382;DHT22;12502;50.678;7.172;2023-09-07T03:50:46;14.60;99.90
24382;DHT22;12502;50.678;7.172;2023-09-07T03:55:48;14.60;99.90
24382;DHT22;12502;50.678;7.172;2023-09-07T04:00:49;14.60;99.90
24382;DHT22;12502;50.678;7.172;2023-09-07T04:05:51;14.50;99.90
24382;DHT22;12502;50.678;7.172;2023-09-07T04:10:53;14.60;99.90
24382;DHT22;12502;50.678;7.172;2023-09-07T04:15:54;14.70;99.90
24382;DHT22;12502;50.678;7.172;2023-09-07T04:21:06;14.40;99.90
24382;DHT22;12502;50.678;7.172;2023-09-07T04:26:08;14.50;99.90
24382;DHT22;12502;50.678;7.172;2023-09-07T04:31:10;14.50;99.90
24382;DHT22;12502;50.678;7.172;2023-09-07T04:36:13;14.70;99.90
24382;DHT22;12502;50.678;7.172;2023-09-07T04:41:15;14.80;99.90
24382;DHT22;12502;50.678;7.172;2023-09-07T04:46:17;14.90;99.90
24382;DHT22;12502;50.678;7.172;2023-09-07T04:51:24;15.00;99.90
24382;DHT22;12502;50.678;7.172;2023-09-07T04:56:27;15.10;99.90
24382;DHT22;12502;50.678;7.172;2023-09-07T05:01:30;15.10;99.90
24382;DHT22;12502;50.678;7.172;2023-09-07T05:06:33;15.20;99.90
24382;DHT22;12502;50.678;7.172;2023-09-07T05:11:38;15.30;99.90
24382;DHT22;12502;50.678;7.172;2023-09-07T05:16:42;15.30;99.90
24382;DHT22;12502;50.678;7.172;2023-09-07T05:21:44;15.20;99.90
24382;DHT22;12502;50.678;7.172;2023-09-07T05:26:45;15.00;99.90
24382;DHT22;12502;50.678;7.172;2023-09-07T05:31:47;15.10;99.90
24382;DHT22;12502;50.678;7.172;2023-09-07T05:36:49;15.20;99.90
24382;DHT22;12502;50.678;7.172;2023-09-07T05:41:50;15.30;99.90
24382;DHT22;12502;50.678;7.172;2023-09-07T05:46:52;15.40;99.90
24382;DHT22;12502;50.678;7.172;2023-09-07T05:51:55;15.50;99.90
24382;DHT22;12502;50.678;7.172;2023-09-07T05:56:57;15.40;99.90
24382;DHT22;12502;50.678;7.172;2023-09-07T06:01:59;15.50;99.90
24382;DHT22;12502;50.678;7.172;2023-09-07T06:07:00;15.70;99.90
24382;DHT22;12502;50.678;7.172;2023-09-07T06:12:02;15.70;99.90
24382;DHT22;12502;50.678;7.172;2023-09-07T06:17:04;15.90;99.90
24382;DHT22;12502;50.678;7.172;2023-09-07T06:22:06;16.10;99.90
24382;DHT22;12502;50.678;7.172;2023-09-07T06:27:08;16.30;99.90
24382;DHT22;12502;50.678;7.172;2023-09-07T06:32:10;16.50;99.90
24382;DHT22;12502;50.678;7.172;2023-09-07T06:37:11;16.60;99.90
24382;DHT22;12502;50.678;7.172;2023-09-07T06:42:13;16.70;99.90
24382;DHT22;12502;50.678;7.172;2023-09-07T06:47:17;16.90;99.90
24382;DHT22;12502;50.678;7.172;2023-09-07T06:52:18;17.10;99.90
24382;DHT22;12502;50.678;7.172;2023-09-07T06:57:20;17.40;99.90
24382;DHT22;12502;50.678;7.172;2023-09-07T07:02:23;17.40;99.90
24382;DHT22;12502;50.678;7.172;2023-09-07T07:07:24;17.70;99.90
24382;DHT22;12502;50.678;7.172;2023-09-07T07:12:26;17.80;99.90
24382;DHT22;12502;50.678;7.172;2023-09-07T07:17:28;17.80;99.90
24382;DHT22;12502;50.678;7.172;2023-09-07T07:22:30;18.10;99.90
24382;DHT22;12502;50.678;7.172;2023-09-07T07:27:34;18.20;99.90
24382;DHT22;12502;50.678;7.172;2023-09-07T07:32:35;18.40;99.90
24382;DHT22;12502;50.678;7.172;2023-09-07T07:37:37;18.60;99.90
24382;DHT22;12502;50.678;7.172;2023-09-07T07:42:40;18.90;99.90
24382;DHT22;12502;50.678;7.172;2023-09-07T07:47:43;19.20;99.90
24382;DHT22;12502;50.678;7.172;2023-09-07T07:52:44;19.30;99.90
24382;DHT22;12502;50.678;7.172;2023-09-07T07:57:46;19.40;99.90
24382;DHT22;12502;50.678;7.172;2023-09-07T08:02:48;19.80;99.90
24382;DHT22;12502;50.678;7.172;2023-09-07T08:07:50;20.30;99.90
24382;DHT22;12502;50.678;7.172;2023-09-07T08:12:55;20.50;99.90
24382;DHT22;12502;50.678;7.172;2023-09-07T08:17:57;20.90;99.90
24382;DHT22;12502;50.678;7.172;2023-09-07T08:22:59;21.10;99.90
24382;DHT22;12502;50.678;7.172;2023-09-07T08:28:00;21.60;99.90
24382;DHT22;12502;50.678;7.172;2023-09-07T08:33:06;21.60;99.90
24382;DHT22;12502;50.678;7.172;2023-09-07T08:38:09;21.80;99.90
24382;DHT22;12502;50.678;7.172;2023-09-07T08:43:10;21.90;99.90
24382;DHT22;12502;50.678;7.172;2023-09-07T08:48:13;22.20;99.90
24382;DHT22;12502;50.678;7.172;2023-09-07T08:53:19;22.30;99.90
24382;DHT22;12502;50.678;7.172;2023-09-07T08:58:21;22.80;99.90
24382;DHT22;12502;50.678;7.172;2023-09-07T09:03:23;23.10;99.90
24382;DHT22;12502;50.678;7.172;2023-09-07T09:08:25;23.00;99.90
24382;DHT22;12502;50.678;7.172;2023-09-07T09:13:27;22.90;99.90
24382;DHT22;12502;50.678;7.172;2023-09-07T09:18:29;23.20;99.90
24382;DHT22;12502;50.678;7.172;2023-09-07T09:23:32;23.60;99.90
24382;DHT22;12502;50.678;7.172;2023-09-07T09:28:34;23.90;99.90
24382;DHT22;12502;50.678;7.172;2023-09-07T09:33:37;24.10;99.90
24382;DHT22;12502;50.678;7.172;2023-09-07T09:38:38;23.80;99.90
24382;DHT22;12502;50.678;7.172;2023-09-07T09:43:40;24.20;99.90
24382;DHT22;12502;50.678;7.172;2023-09-07T09:48:42;23.80;99.90
24382;DHT22;12502;50.678;7.172;2023-09-07T09:53:44;24.50;99.90
24382;DHT22;12502;50.678;7.172;2023-09-07T09:58:46;24.70;99.90
24382;DHT22;12502;50.678;7.172;2023-09-07T10:03:47;24.90;99.90
24382;DHT22;12502;50.678;7.172;2023-09-07T10:13:59;25.20;99.90
24382;DHT22;12502;50.678;7.172;2023-09-07T10:19:01;25.10;99.90
24382;DHT22;12502;50.678;7.172;2023-09-07T10:24:03;25.40;99.90
24382;DHT22;12502;50.678;7.172;2023-09-07T10:29:04;25.60;99.90
24382;DHT22;12502;50.678;7.172;2023-09-07T10:34:10;25.60;99.90
24382;DHT22;12502;50.678;7.172;2023-09-07T10:39:15;26.00;99.90
24382;DHT22;12502;50.678;7.172;2023-09-07T10:44:25;26.20;99.90
24382;DHT22;12502;50.678;7.172;2023-09-07T10:49:26;26.10;99.90
24382;DHT22;12502;50.678;7.172;2023-09-07T10:54:28;26.40;99.90
24382;DHT22;12502;50.678;7.172;2023-09-07T10:59:30;26.40;99.90
24382;DHT22;12502;50.678;7.172;2023-09-07T11:04:32;26.50;99.90
24382;DHT22;12502;50.678;7.172;2023-09-07T11:09:35;26.60;99.90
24382;DHT22;12502;50.678;7.172;2023-09-07T11:14:41;27.00;99.90
24382;DHT22;12502;50.678;7.172;2023-09-07T11:19:42;27.20;99.90
24382;DHT22;12502;50.678;7.172;2023-09-07T11:24:44;27.50;99.90
24382;DHT22;12502;50.678;7.172;2023-09-07T11:29:50;27.70;99.90
24382;DHT22;12502;50.678;7.172;2023-09-07T11:34:52;27.70;99.90
24382;DHT22;12502;50.678;7.172;2023-09-07T11:39:59;27.70;99.90
24382;DHT22;12502;50.678;7.172;2023-09-07T11:45:01;27.90;99.90
24382;DHT22;12502;50.678;7.172;2023-09-07T11:50:02;27.90;98.60
24382;DHT22;12502;50.678;7.172;2023-09-07T11:55:04;28.20;98.00
24382;DHT22;12502;50.678;7.172;2023-09-07T12:00:07;28.00;98.60
24382;DHT22;12502;50.678;7.172;2023-09-07T12:05:12;28.10;98.80
24382;DHT22;12502;50.678;7.172;2023-09-07T12:10:16;28.20;95.80
24382;DHT22;12502;50.678;7.172;2023-09-07T12:15:17;28.40;94.60
24382;DHT22;12502;50.678;7.172;2023-09-07T12:20:19;28.40;94.80
24382;DHT22;12502;50.678;7.172;2023-09-07T12:25:21;28.60;95.00
24382;DHT22;12502;50.678;7.172;2023-09-07T12:30:23;28.50;94.40
24382;DHT22;12502;50.678;7.172;2023-09-07T12:35:25;28.40;94.90
24382;DHT22;12502;50.678;7.172;2023-09-07T12:40:27;28.40;95.10
24382;DHT22;12502;50.678;7.172;2023-09-07T12:45:29;28.30;94.60
24382;DHT22;12502;50.678;7.172;2023-09-07T12:50:30;28.50;94.70
24382;DHT22;12502;50.678;7.172;2023-09-07T12:55:32;28.70;95.40
24382;DHT22;12502;50.678;7.172;2023-09-07T13:00:34;28.90;94.60
24382;DHT22;12502;50.678;7.172;2023-09-07T13:05:36;28.60;94.90
24382;DHT22;12502;50.678;7.172;2023-09-07T13:10:38;28.80;95.00
24382;DHT22;12502;50.678;7.172;2023-09-07T13:15:40;29.00;93.10
24382;DHT22;12502;50.678;7.172;2023-09-07T13:20:42;28.90;93.80
24382;DHT22;12502;50.678;7.172;2023-09-07T13:25:43;29.00;92.80
24382;DHT22;12502;50.678;7.172;2023-09-07T13:30:45;29.00;94.60
24382;DHT22;12502;50.678;7.172;2023-09-07T13:35:47;29.10;95.70
24382;DHT22;12502;50.678;7.172;2023-09-07T13:40:48;29.20;93.70
24382;DHT22;12502;50.678;7.172;2023-09-07T13:45:50;29.00;93.70
24382;DHT22;12502;50.678;7.172;2023-09-07T13:50:52;29.00;93.40
24382;DHT22;12502;50.678;7.172;2023-09-07T13:55:54;29.10;93.50
24382;DHT22;12502;50.678;7.172;2023-09-07T14:00:56;29.20;93.10
24382;DHT22;12502;50.678;7.172;2023-09-07T14:05:58;29.20;93.30
24382;DHT22;12502;50.678;7.172;2023-09-07T14:11:00;29.50;92.40
24382;DHT22;12502;50.678;7.172;2023-09-07T14:16:02;29.30;93.90
24382;DHT22;12502;50.678;7.172;2023-09-07T14:21:04;29.50;93.10
24382;DHT22;12502;50.678;7.172;2023-09-07T14:26:05;29.50;92.80
24382;DHT22;12502;50.678;7.172;2023-09-07T14:31:07;29.40;92.90
24382;DHT22;12502;50.678;7.172;2023-09-07T14:36:10;29.50;93.60
24382;DHT22;12502;50.678;7.172;2023-09-07T14:41:11;29.30;93.40
24382;DHT22;12502;50.678;7.172;2023-09-07T14:46:20;29.30;93.20
24382;DHT22;12502;50.678;7.172;2023-09-07T14:51:24;29.10;93.60
24382;DHT22;12502;50.678;7.172;2023-09-07T14:56:25;29.20;92.90
24382;DHT22;12502;50.678;7.172;2023-09-07T15:01:28;29.40;94.00
24382;DHT22;12502;50.678;7.172;2023-09-07T15:06:30;29.30;94.00
24382;DHT22;12502;50.678;7.172;2023-09-07T15:11:35;29.20;93.80
24382;DHT22;12502;50.678;7.172;2023-09-07T15:16:36;28.90;92.80
24382;DHT22;12502;50.678;7.172;2023-09-07T15:21:38;28.90;92.40
24382;DHT22;12502;50.678;7.172;2023-09-07T15:26:41;28.80;93.10
24382;DHT22;12502;50.678;7.172;2023-09-07T15:31:43;28.80;92.40
24382;DHT22;12502;50.678;7.172;2023-09-07T15:36:45;28.90;92.50
24382;DHT22;12502;50.678;7.172;2023-09-07T15:41:47;28.90;92.10
24382;DHT22;12502;50.678;7.172;2023-09-07T15:46:49;28.90;92.10
24382;DHT22;12502;50.678;7.172;2023-09-07T15:51:51;28.90;92.40
24382;DHT22;12502;50.678;7.172;2023-09-07T15:56:53;28.70;93.10
24382;DHT22;12502;50.678;7.172;2023-09-07T16:02:03;28.60;93.40
24382;DHT22;12502;50.678;7.172;2023-09-07T16:07:06;28.60;92.40
24382;DHT22;12502;50.678;7.172;2023-09-07T16:12:08;28.50;93.00
24382;DHT22;12502;50.678;7.172;2023-09-07T16:17:10;28.40;92.80
24382;DHT22;12502;50.678;7.172;2023-09-07T16:22:12;28.20;93.40
24382;DHT22;12502;50.678;7.172;2023-09-07T16:27:13;28.20;92.60
24382;DHT22;12502;50.678;7.172;2023-09-07T16:32:15;28.20;91.70
24382;DHT22;12502;50.678;7.172;2023-09-07T16:37:18;28.30;91.50
24382;DHT22;12502;50.678;7.172;2023-09-07T16:42:20;28.10;91.80
24382;DHT22;12502;50.678;7.172;2023-09-07T16:47:23;27.90;93.10
24382;DHT22;12502;50.678;7.172;2023-09-07T16:52:25;28.00;92.10
24382;DHT22;12502;50.678;7.172;2023-09-07T16:57:29;27.80;92.90
24382;DHT22;12502;50.678;7.172;2023-09-07T17:02:31;27.60;94.30
24382;DHT22;12502;50.678;7.172;2023-09-07T17:07:33;27.50;94.40
24382;DHT22;12502;50.678;7.172;2023-09-07T17:12:35;27.40;93.90
24382;DHT22;12502;50.678;7.172;2023-09-07T17:17:36;27.30;94.50
24382;DHT22;12502;50.678;7.172;2023-09-07T17:22:38;27.20;95.20
24382;DHT22;12502;50.678;7.172;2023-09-07T17:27:44;26.90;96.00
24382;DHT22;12502;50.678;7.172;2023-09-07T17:32:46;26.80;96.20
24382;DHT22;12502;50.678;7.172;2023-09-07T17:37:49;26.70;95.80
24382;DHT22;12502;50.678;7.172;2023-09-07T17:42:51;26.60;95.90
24382;DHT22;12502;50.678;7.172;2023-09-07T17:47:52;26.80;95.40
24382;DHT22;12502;50.678;7.172;2023-09-07T17:52:54;26.40;95.60
24382;DHT22;12502;50.678;7.172;2023-09-07T17:57:56;26.00;97.00
24382;DHT22;12502;50.678;7.172;2023-09-07T18:02:58;25.90;97.70
24382;DHT22;12502;50.678;7.172;2023-09-07T18:08:02;25.50;99.60
24382;DHT22;12502;50.678;7.172;2023-09-07T18:13:05;25.20;99.90
24382;DHT22;12502;50.678;7.172;2023-09-07T18:18:07;24.90;99.90
24382;DHT22;12502;50.678;7.172;2023-09-07T18:23:09;24.60;99.90
24382;DHT22;12502;50.678;7.172;2023-09-07T18:28:11;24.30;99.90
24382;DHT22;12502;50.678;7.172;2023-09-07T18:33:13;24.00;99.90
24382;DHT22;12502;50.678;7.172;2023-09-07T18:38:15;23.80;99.90
24382;DHT22;12502;50.678;7.172;2023-09-07T18:43:17;23.80;99.90
24382;DHT22;12502;50.678;7.172;2023-09-07T18:48:19;23.70;99.90
24382;DHT22;12502;50.678;7.172;2023-09-07T18:53:20;23.70;99.90
24382;DHT22;12502;50.678;7.172;2023-09-07T18:58:22;23.50;99.90
24382;DHT22;12502;50.678;7.172;2023-09-07T19:03:24;23.40;99.90
24382;DHT22;12502;50.678;7.172;2023-09-07T19:08:26;23.20;99.90
24382;DHT22;12502;50.678;7.172;2023-09-07T19:13:27;22.90;99.90
24382;DHT22;12502;50.678;7.172;2023-09-07T19:18:29;22.50;99.90
24382;DHT22;12502;50.678;7.172;2023-09-07T19:23:31;22.40;99.90
24382;DHT22;12502;50.678;7.172;2023-09-07T19:28:33;22.20;99.90
24382;DHT22;12502;50.678;7.172;2023-09-07T19:33:35;22.10;99.90
24382;DHT22;12502;50.678;7.172;2023-09-07T19:38:37;21.90;99.90
24382;DHT22;12502;50.678;7.172;2023-09-07T19:43:41;21.70;99.90
24382;DHT22;12502;50.678;7.172;2023-09-07T19:48:43;21.70;99.90
24382;DHT22;12502;50.678;7.172;2023-09-07T19:53:46;21.40;99.90
24382;DHT22;12502;50.678;7.172;2023-09-07T19:58:49;21.40;99.90
24382;DHT22;12502;50.678;7.172;2023-09-07T20:03:53;21.30;99.90
24382;DHT22;12502;50.678;7.172;2023-09-07T20:08:56;21.00;99.90
24382;DHT22;12502;50.678;7.172;2023-09-07T20:13:57;20.70;99.90
24382;DHT22;12502;50.678;7.172;2023-09-07T20:18:59;20.70;99.90
24382;DHT22;12502;50.678;7.172;2023-09-07T20:24:01;20.60;99.90
24382;DHT22;12502;50.678;7.172;2023-09-07T20:29:03;20.40;99.90
24382;DHT22;12502;50.678;7.172;2023-09-07T20:34:09;20.30;99.90
24382;DHT22;12502;50.678;7.172;2023-09-07T20:39:11;20.20;99.90
24382;DHT22;12502;50.678;7.172;2023-09-07T20:44:13;20.00;99.90
24382;DHT22;12502;50.678;7.172;2023-09-07T20:49:14;20.10;99.90
24382;DHT22;12502;50.678;7.172;2023-09-07T20:54:16;19.80;99.90
24382;DHT22;12502;50.678;7.172;2023-09-07T20:59:18;19.80;99.90
24382;DHT22;12502;50.678;7.172;2023-09-07T21:04:20;19.50;99.90
24382;DHT22;12502;50.678;7.172;2023-09-07T21:09:21;19.60;99.90
24382;DHT22;12502;50.678;7.172;2023-09-07T21:14:23;19.60;99.90
24382;DHT22;12502;50.678;7.172;2023-09-07T21:19:25;19.30;99.90
24382;DHT22;12502;50.678;7.172;2023-09-07T21:24:26;19.10;99.90
24382;DHT22;12502;50.678;7.172;2023-09-07T21:29:28;19.10;99.90
24382;DHT22;12502;50.678;7.172;2023-09-07T21:34:30;18.90;99.90
24382;DHT22;12502;50.678;7.172;2023-09-07T21:39:33;18.90;99.90
24382;DHT22;12502;50.678;7.172;2023-09-07T21:44:35;18.80;99.90
24382;DHT22;12502;50.678;7.172;2023-09-07T21:49:37;18.60;99.90
24382;DHT22;12502;50.678;7.172;2023-09-07T21:54:38;18.50;99.90
24382;DHT22;12502;50.678;7.172;2023-09-07T21:59:40;18.50;99.90
24382;DHT22;12502;50.678;7.172;2023-09-07T22:04:42;18.40;99.90
24382;DHT22;12502;50.678;7.172;2023-09-07T22:09:43;18.40;99.90
24382;DHT22;12502;50.678;7.172;2023-09-07T22:14:45;18.30;99.90
24382;DHT22;12502;50.678;7.172;2023-09-07T22:19:47;18.20;99.90
24382;DHT22;12502;50.678;7.172;2023-09-07T22:24:49;18.00;99.90
24382;DHT22;12502;50.678;7.172;2023-09-07T22:29:50;17.90;99.90
24382;DHT22;12502;50.678;7.172;2023-09-07T22:34:52;17.90;99.90
24382;DHT22;12502;50.678;7.172;2023-09-07T22:39:54;18.10;99.90
24382;DHT22;12502;50.678;7.172;2023-09-07T22:44:55;17.90;99.90
24382;DHT22;12502;50.678;7.172;2023-09-07T22:49:57;17.70;99.90
24382;DHT22;12502;50.678;7.172;2023-09-07T22:55:01;17.70;99.90
24382;DHT22;12502;50.678;7.172;2023-09-07T23:00:03;17.90;99.90
24382;DHT22;12502;50.678;7.172;2023-09-07T23:05:08;17.70;99.90
24382;DHT22;12502;50.678;7.172;2023-09-07T23:10:12;17.60;99.90
24382;DHT22;12502;50.678;7.172;2023-09-07T23:15:14;17.50;99.90
24382;DHT22;12502;50.678;7.172;2023-09-07T23:20:16;17.40;99.90
24382;DHT22;12502;50.678;7.172;2023-09-07T23:25:17;17.30;99.90
24382;DHT22;12502;50.678;7.172;2023-09-07T23:30:19;17.20;99.90
24382;DHT22;12502;50.678;7.172;2023-09-07T23:35:22;17.20;99.90
24382;DHT22;12502;50.678;7.172;2023-09-07T23:40:24;17.20;99.90
24382;DHT22;12502;50.678;7.172;2023-09-07T23:45:25;17.20;99.90
24382;DHT22;12502;50.678;7.172;2023-09-07T23:50:27;17.20;99.90
24382;DHT22;12502;50.678;7.172;2023-09-07T23:55:29;17.00;99.90
